createdAt,value
2022-07-29T00:02:38.383Z,4.70
2022-07-29T00:11:01.601Z,4.30
2022-07-29T00:19:24.664Z,4.60
2022-07-29T00:27:48.738Z,4.40
2022-07-29T00:36:15.414Z,4.10
2022-07-29T00:44:43.456Z,4.20
2022-07-29T00:53:10.479Z,4.30
2022-07-29T01:01:34.539Z,4.90
2022-07-29T01:09:59.911Z,4.70
2022-07-29T01:18:35.099Z,3.40
2022-07-29T01:27:39.576Z,5.30
2022-07-29T01:36:13.682Z,4.10
2022-07-29T01:44:57.490Z,4.20
2022-07-29T01:53:37.927Z,4.60
2022-07-29T02:02:02.909Z,4.90
2022-07-29T02:10:30.278Z,4.80
2022-07-29T02:18:57.232Z,5.10
2022-07-29T02:27:21.882Z,4.10
2022-07-29T02:35:47.851Z,3.50
2022-07-29T02:44:16.470Z,5.10
2022-07-29T02:52:45.217Z,3.40
2022-07-29T03:01:22.158Z,3.00
2022-07-29T03:09:46.887Z,2.80
2022-07-29T03:18:10.712Z,3.30
2022-07-29T03:26:33.732Z,2.90
2022-07-29T03:34:56.663Z,3.70
2022-07-29T03:43:21.215Z,3.60
2022-07-29T03:51:44.524Z,3.50
2022-07-29T04:00:08.573Z,3.70
2022-07-29T04:08:31.599Z,3.60
2022-07-29T04:16:54.502Z,3.50
2022-07-29T04:25:18.429Z,4.60
2022-07-29T04:33:41.524Z,3.10
2022-07-29T04:42:04.685Z,3.40
2022-07-29T04:50:31.527Z,2.90
2022-07-29T04:58:55.027Z,2.60
2022-07-29T05:07:17.971Z,1.90
2022-07-29T05:15:41.106Z,1.90
2022-07-29T05:24:04.479Z,3.60
2022-07-29T05:32:27.604Z,1.80
2022-07-29T05:40:50.652Z,1.50
2022-07-29T05:49:13.624Z,1.20
2022-07-29T05:57:50.493Z,1.60
2022-07-29T06:06:13.853Z,1.50
2022-07-29T06:14:37.145Z,1.50
2022-07-29T06:23:01.088Z,1.30
2022-07-29T06:31:24.179Z,1.80
2022-07-29T06:39:47.201Z,1.30
2022-07-29T06:48:11.594Z,0.90
2022-07-29T06:56:40.436Z,1.30
2022-07-29T07:05:04.007Z,2.80
2022-07-29T07:13:27.342Z,1.20
2022-07-29T07:21:50.408Z,0.80
2022-07-29T07:30:14.384Z,1.20
2022-07-29T07:38:37.426Z,1.10
2022-07-29T07:47:08.540Z,0.80
2022-07-29T07:55:47.500Z,2.80
2022-07-29T08:04:15.036Z,0.70
2022-07-29T08:12:38.879Z,0.60
2022-07-29T08:21:02.222Z,2.40
2022-07-29T08:29:25.311Z,0.90
2022-07-29T08:37:48.309Z,0.90
2022-07-29T08:46:11.374Z,0.70
2022-07-29T08:54:35.811Z,0.80
2022-07-29T09:03:00.430Z,0.90
2022-07-29T09:11:23.364Z,0.70
2022-07-29T09:19:46.345Z,6.10
2022-07-29T09:28:15.486Z,0.70
2022-07-29T09:36:45.736Z,0.70
2022-07-29T09:45:09.573Z,0.80
2022-07-29T09:53:38.413Z,1.00
2022-07-29T10:02:01.986Z,1.40
2022-07-29T10:10:38.153Z,0.90
2022-07-29T10:19:02.496Z,0.70
2022-07-29T10:27:25.500Z,0.60
2022-07-29T10:36:07.154Z,0.70
2022-07-29T10:44:34.835Z,1.30
2022-07-29T10:52:58.740Z,0.80
2022-07-29T11:01:37.629Z,0.80
2022-07-29T11:10:18.077Z,0.80
2022-07-29T11:19:13.431Z,0.70
2022-07-29T11:27:40.770Z,0.60
2022-07-29T11:36:16.839Z,0.70
2022-07-29T11:45:41.149Z,0.80
2022-07-29T11:53:55.100Z,0.80
2022-07-29T12:02:37.026Z,0.90
2022-07-29T12:11:05.105Z,0.60
2022-07-29T12:19:43.707Z,0.90
2022-07-29T12:28:14.096Z,6.50
2022-07-29T12:36:37.433Z,0.70
2022-07-29T12:45:00.525Z,0.70
2022-07-29T12:53:23.893Z,0.60
2022-07-29T13:01:53.296Z,1.40
2022-07-29T13:10:24.438Z,0.80
2022-07-29T13:18:47.865Z,0.80
2022-07-29T13:27:10.964Z,0.70
2022-07-29T13:35:33.864Z,0.50
2022-07-29T13:44:04.260Z,0.60
2022-07-29T13:52:27.349Z,2.30
2022-07-29T14:00:50.596Z,0.80
2022-07-29T14:09:13.786Z,0.80
2022-07-29T14:17:36.751Z,0.70
2022-07-29T14:25:59.786Z,0.60
2022-07-29T14:34:30.085Z,0.70
2022-07-29T14:42:54.568Z,0.30
2022-07-29T14:51:17.561Z,0.50
2022-07-29T14:59:40.498Z,0.90
2022-07-29T15:08:03.936Z,0.90
2022-07-29T15:16:33.101Z,0.60
2022-07-29T15:24:56.143Z,0.50
2022-07-29T15:33:19.189Z,0.70
2022-07-29T15:41:42.324Z,0.80
2022-07-29T15:50:12.948Z,0.80
2022-07-29T15:58:35.957Z,0.70
2022-07-29T16:06:59.483Z,0.80
2022-07-29T16:15:23.050Z,1.10
2022-07-29T16:23:46.112Z,1.10
2022-07-29T16:32:09.697Z,0.70
2022-07-29T16:40:33.032Z,0.70
2022-07-29T16:48:56.183Z,0.80
2022-07-29T16:57:19.398Z,0.90
2022-07-29T17:05:52.383Z,0.90
2022-07-29T17:14:17.616Z,1.00
2022-07-29T17:22:41.270Z,1.20
2022-07-29T17:31:04.284Z,1.60
2022-07-29T17:39:27.370Z,1.10
2022-07-29T17:47:50.276Z,1.20
2022-07-29T17:56:14.443Z,2.90
2022-07-29T18:04:37.366Z,1.50
2022-07-29T18:13:00.364Z,1.40
2022-07-29T18:21:37.587Z,2.40
2022-07-29T18:30:07.935Z,1.90
2022-07-29T18:38:30.972Z,1.70
2022-07-29T18:46:56.055Z,1.90
2022-07-29T18:55:22.137Z,2.10
2022-07-29T19:03:45.175Z,2.20
2022-07-29T19:12:08.249Z,2.70
2022-07-29T19:20:31.199Z,2.80
2022-07-29T19:28:55.856Z,2.60
2022-07-29T19:37:20.699Z,2.20
2022-07-29T19:45:46.970Z,2.10
2022-07-29T19:54:10.918Z,2.00
2022-07-29T20:02:35.157Z,1.80
2022-07-29T20:10:58.648Z,1.40
2022-07-29T20:19:21.731Z,1.80
2022-07-29T20:27:44.910Z,1.90
2022-07-29T20:36:09.501Z,1.90
2022-07-29T20:44:34.650Z,1.60
2022-07-29T20:52:58.320Z,2.20
2022-07-29T21:01:21.365Z,1.90
2022-07-29T21:09:44.847Z,1.60
2022-07-29T21:18:27.517Z,1.60
2022-07-29T21:27:18.369Z,1.40
2022-07-29T21:44:19.645Z,1.40
2022-07-29T21:52:43.488Z,1.70
2022-07-29T22:01:08.582Z,1.10
2022-07-29T22:09:33.493Z,1.00
2022-07-29T22:17:57.094Z,1.60
2022-07-29T22:26:22.611Z,1.40
2022-07-29T22:34:47.647Z,1.30
2022-07-29T22:43:10.791Z,1.30
2022-07-29T22:51:33.835Z,1.10
2022-07-29T22:59:56.994Z,1.20
2022-07-29T23:08:25.095Z,1.30
2022-07-29T23:16:48.189Z,1.30
2022-07-29T23:25:16.198Z,1.10
2022-07-29T23:33:43.421Z,1.10
2022-07-29T23:42:06.428Z,1.40
2022-07-29T23:50:29.495Z,1.10
2022-07-29T23:58:52.598Z,1.30
